createdAt,value
2019-03-20T00:04:12.459Z,100059.66
2019-03-20T00:06:41.835Z,100054.94
2019-03-20T00:09:11.211Z,100057.47
2019-03-20T00:11:39.750Z,100060.59
2019-03-20T00:14:09.102Z,100058.23
2019-03-20T00:16:38.447Z,100051.43
2019-03-20T00:19:07.846Z,100056.14
2019-03-20T00:21:37.188Z,100056.01
2019-03-20T00:24:06.544Z,100057.86
2019-03-20T00:26:35.909Z,100059.36
2019-03-20T00:29:05.289Z,100070.89
2019-03-20T00:31:34.676Z,100064.85
2019-03-20T00:34:04.042Z,100060.02
2019-03-20T00:36:33.494Z,100071.83
2019-03-20T00:39:14.575Z,100078.45
2019-03-20T00:41:43.147Z,100079.41
2019-03-20T00:44:12.490Z,100084.31
2019-03-20T00:46:41.870Z,100084.02
2019-03-20T00:49:11.221Z,100091.68
2019-03-20T00:51:40.564Z,100085.77
2019-03-20T00:54:09.950Z,100091.89
2019-03-20T00:56:39.328Z,100090.70
2019-03-20T00:59:08.715Z,100089.52
2019-03-20T01:01:38.098Z,100089.41
2019-03-20T01:04:07.447Z,100081.38
2019-03-20T01:06:36.805Z,100088.17
2019-03-20T01:09:06.830Z,100085.48
2019-03-20T01:11:36.192Z,100081.94
2019-03-20T01:14:05.545Z,100082.47
2019-03-20T01:16:34.939Z,100082.38
2019-03-20T01:19:04.286Z,100076.99
2019-03-20T01:21:33.630Z,100081.00
2019-03-20T01:24:15.198Z,100078.52
2019-03-20T01:26:43.847Z,100077.03
2019-03-20T01:29:13.186Z,100075.68
2019-03-20T01:31:42.583Z,100074.28
2019-03-20T01:34:11.933Z,100077.27
2019-03-20T01:36:41.268Z,100081.79
2019-03-20T01:39:21.461Z,100086.51
2019-03-20T01:41:50.813Z,100087.37
2019-03-20T01:44:20.181Z,100085.16
2019-03-20T01:46:49.696Z,100087.61
2019-03-20T01:49:19.045Z,100084.44
2019-03-20T01:51:48.442Z,100088.47
2019-03-20T01:54:17.793Z,100088.73
2019-03-20T01:56:47.194Z,100092.49
2019-03-20T01:59:16.606Z,100083.44
2019-03-20T02:01:45.947Z,100087.08
2019-03-20T02:04:15.493Z,100079.67
2019-03-20T02:06:44.867Z,100085.69
2019-03-20T02:09:14.260Z,100081.16
2019-03-20T02:11:43.647Z,100085.84
2019-03-20T02:14:13.002Z,100077.63
2019-03-20T02:16:42.339Z,100081.98
2019-03-20T02:19:11.691Z,100086.55
2019-03-20T02:21:41.032Z,100090.34
2019-03-20T02:24:10.400Z,100089.41
2019-03-20T02:26:39.801Z,100085.98
2019-03-20T02:29:09.152Z,100083.12
2019-03-20T02:31:38.521Z,100084.58
2019-03-20T02:34:07.872Z,100078.22
2019-03-20T02:36:37.208Z,100079.84
2019-03-20T02:42:08.967Z,100093.28
2019-03-20T02:44:38.335Z,100092.12
2019-03-20T02:47:07.693Z,100094.14
2019-03-20T02:49:37.101Z,100096.54
2019-03-20T02:52:06.488Z,100098.41
2019-03-20T02:54:35.831Z,100107.11
2019-03-20T02:57:05.179Z,100108.86
2019-03-20T02:59:34.553Z,100101.95
2019-03-20T03:02:04.193Z,100102.44
2019-03-20T03:04:33.590Z,100112.48
2019-03-20T03:07:02.964Z,100112.25
2019-03-20T03:09:32.302Z,100110.97
2019-03-20T03:12:01.668Z,100117.72
2019-03-20T03:14:31.009Z,100110.88
2019-03-20T03:17:00.357Z,100115.88
2019-03-20T03:19:29.736Z,100120.67
2019-03-20T03:21:59.082Z,100116.38
2019-03-20T03:24:28.660Z,100121.34
2019-03-20T03:26:58.008Z,100117.73
2019-03-20T03:29:27.379Z,100115.98
2019-03-20T03:31:56.724Z,100118.78
2019-03-20T03:34:26.109Z,100122.53
2019-03-20T03:36:55.409Z,100124.48
2019-03-20T03:39:24.771Z,100121.73
2019-03-20T03:41:54.101Z,100124.57
2019-03-20T03:44:23.448Z,100130.83
2019-03-20T03:46:52.822Z,100137.67
2019-03-20T03:49:22.203Z,100141.23
2019-03-20T03:51:51.566Z,100145.53
2019-03-20T03:54:20.923Z,100143.08
2019-03-20T03:56:50.509Z,100148.27
2019-03-20T03:59:19.883Z,100148.41
2019-03-20T04:01:49.207Z,100150.83
2019-03-20T04:04:18.579Z,100149.17
2019-03-20T04:06:47.957Z,100148.89
2019-03-20T04:09:17.300Z,100151.61
2019-03-20T04:11:46.698Z,100151.98
2019-03-20T04:14:16.070Z,100156.65
2019-03-20T04:16:45.429Z,100161.20
2019-03-20T04:19:14.795Z,100158.19
2019-03-20T04:21:44.158Z,100161.06
2019-03-20T04:24:13.513Z,100170.47
2019-03-20T04:26:42.869Z,100172.80
2019-03-20T04:29:12.226Z,100167.59
2019-03-20T04:31:41.593Z,100173.82
2019-03-20T04:34:10.956Z,100172.27
2019-03-20T04:36:47.686Z,100162.70
2019-03-20T04:39:29.593Z,100166.33
2019-03-20T04:41:58.964Z,100169.22
2019-03-20T04:44:28.321Z,100178.59
2019-03-20T04:46:57.678Z,100173.41
2019-03-20T04:49:27.049Z,100173.11
2019-03-20T04:51:56.413Z,100181.19
2019-03-20T04:54:25.775Z,100185.03
2019-03-20T04:56:55.123Z,100187.14
2019-03-20T04:59:24.487Z,100187.48
2019-03-20T05:01:53.867Z,100196.31
2019-03-20T05:04:23.215Z,100199.07
2019-03-20T05:06:58.682Z,100206.33
2019-03-20T05:09:41.841Z,100207.98
2019-03-20T05:12:11.205Z,100213.53
2019-03-20T05:14:40.559Z,100208.80
2019-03-20T05:17:09.926Z,100221.04
2019-03-20T05:19:39.329Z,100226.80
2019-03-20T05:22:08.704Z,100228.00
2019-03-20T05:24:38.066Z,100232.59
2019-03-20T05:27:07.430Z,100235.36
2019-03-20T05:29:36.777Z,100242.31
2019-03-20T05:32:06.147Z,100247.55
2019-03-20T05:34:35.518Z,100246.78
2019-03-20T05:37:10.137Z,100253.65
2019-03-20T05:39:54.160Z,100257.02
2019-03-20T05:42:23.523Z,100262.52
2019-03-20T05:44:52.898Z,100259.31
2019-03-20T05:47:22.262Z,100264.08
2019-03-20T05:49:51.618Z,100263.44
2019-03-20T05:52:20.990Z,100267.47
2019-03-20T05:54:50.348Z,100272.97
2019-03-20T05:57:19.718Z,100279.88
2019-03-20T05:59:49.085Z,100282.97
2019-03-20T06:02:18.433Z,100280.43
2019-03-20T06:04:47.818Z,100281.22
2019-03-20T06:07:21.630Z,100290.84
2019-03-20T06:10:08.249Z,100299.02
2019-03-20T06:12:36.922Z,100303.44
2019-03-20T06:15:18.010Z,100302.91
2019-03-20T06:17:47.076Z,100310.91
2019-03-20T06:20:35.934Z,100312.08
2019-03-20T06:23:05.310Z,100319.38
2019-03-20T06:25:34.723Z,100323.58
2019-03-20T06:28:04.103Z,100322.70
2019-03-20T06:30:33.450Z,100335.23
2019-03-20T06:33:02.944Z,100339.66
2019-03-20T06:35:32.299Z,100337.55
2019-03-20T06:38:01.684Z,100339.20
2019-03-20T06:40:31.072Z,100343.17
2019-03-20T06:43:00.481Z,100346.73
2019-03-20T06:45:29.851Z,100345.23
2019-03-20T06:47:59.341Z,100348.64
2019-03-20T06:50:28.693Z,100357.66
2019-03-20T06:52:58.156Z,100360.56
2019-03-20T06:55:27.523Z,100365.82
2019-03-20T06:57:57.125Z,100360.94
2019-03-20T07:01:05.204Z,100365.17
2019-03-20T07:06:59.997Z,100368.27
2019-03-20T07:10:08.240Z,100366.62
2019-03-20T07:12:37.612Z,100370.48
2019-03-20T07:15:07.083Z,100369.09
2019-03-20T07:17:36.448Z,100371.58
2019-03-20T07:20:06.117Z,100372.86
2019-03-20T07:22:35.488Z,100376.86
2019-03-20T07:25:05.309Z,100377.69
2019-03-20T07:27:34.715Z,100379.91
2019-03-20T07:30:04.953Z,100384.24
2019-03-20T07:32:33.608Z,100383.37
2019-03-20T07:35:03.222Z,100381.69
2019-03-20T07:37:33.716Z,100388.03
2019-03-20T07:40:21.858Z,100378.19
2019-03-20T07:42:51.230Z,100384.73
2019-03-20T07:45:20.600Z,100385.33
2019-03-20T07:47:49.971Z,100386.38
2019-03-20T07:50:19.348Z,100383.13
2019-03-20T07:52:48.712Z,100390.02
2019-03-20T07:55:18.064Z,100385.67
2019-03-20T07:57:47.443Z,100386.97
2019-03-20T08:00:16.820Z,100384.88
2019-03-20T08:02:46.193Z,100381.93
2019-03-20T08:05:15.673Z,100382.61
2019-03-20T08:07:45.054Z,100380.88
2019-03-20T08:10:14.434Z,100386.11
2019-03-20T08:12:43.892Z,100387.34
2019-03-20T08:15:13.658Z,100390.45
2019-03-20T08:17:43.045Z,100394.47
2019-03-20T08:20:12.961Z,100391.95
2019-03-20T08:22:42.309Z,100400.07
2019-03-20T08:25:11.779Z,100397.43
2019-03-20T08:27:41.163Z,100399.25
2019-03-20T08:30:13.823Z,100407.64
2019-03-20T08:32:42.627Z,100406.80
2019-03-20T08:38:18.460Z,100408.73
2019-03-20T08:41:03.320Z,100404.30
2019-03-20T08:43:32.679Z,100408.38
2019-03-20T08:46:02.080Z,100406.17
2019-03-20T08:48:31.490Z,100404.41
2019-03-20T08:51:00.858Z,100409.39
2019-03-20T08:53:30.252Z,100409.84
2019-03-20T08:55:59.600Z,100411.08
2019-03-20T08:58:28.981Z,100405.16
2019-03-20T09:00:58.321Z,100406.66
2019-03-20T09:03:27.747Z,100414.52
2019-03-20T09:05:57.131Z,100407.03
2019-03-20T09:08:29.616Z,100413.14
2019-03-20T09:11:15.757Z,100410.39
2019-03-20T09:13:45.145Z,100414.46
2019-03-20T09:16:14.607Z,100410.38
2019-03-20T09:18:43.992Z,100417.02
2019-03-20T09:21:13.357Z,100417.67
2019-03-20T09:23:42.754Z,100415.02
2019-03-20T09:26:12.146Z,100416.87
2019-03-20T09:28:41.518Z,100415.56
2019-03-20T09:31:10.888Z,100419.56
2019-03-20T09:33:40.353Z,100420.72
2019-03-20T09:36:09.751Z,100426.48
2019-03-20T09:38:43.301Z,100422.63
2019-03-20T09:41:28.444Z,100422.06
2019-03-20T09:43:57.844Z,100417.53
2019-03-20T09:46:27.241Z,100420.98
2019-03-20T09:48:56.597Z,100417.33
2019-03-20T09:51:26.027Z,100424.34
2019-03-20T09:53:55.462Z,100424.73
2019-03-20T09:56:24.023Z,100427.89
2019-03-20T09:58:53.388Z,100425.45
2019-03-20T10:01:22.874Z,100428.17
2019-03-20T10:03:52.353Z,100424.75
2019-03-20T10:06:21.764Z,100425.14
2019-03-20T10:08:54.470Z,100421.73
2019-03-20T10:11:40.556Z,100424.44
2019-03-20T10:14:09.928Z,100426.73
2019-03-20T10:16:39.358Z,100424.19
2019-03-20T10:19:08.840Z,100425.16
2019-03-20T10:21:38.206Z,100428.46
2019-03-20T10:24:07.559Z,100428.67
2019-03-20T10:26:36.914Z,100429.38
2019-03-20T10:29:06.306Z,100422.28
2019-03-20T10:31:35.787Z,100422.34
2019-03-20T10:34:05.162Z,100422.10
2019-03-20T10:36:34.656Z,100420.47
2019-03-20T10:42:07.381Z,100417.50
2019-03-20T10:44:36.763Z,100414.59
2019-03-20T10:47:06.121Z,100415.17
2019-03-20T10:49:35.471Z,100415.16
2019-03-20T10:52:04.894Z,100406.73
2019-03-20T10:54:34.279Z,100409.65
2019-03-20T10:57:03.734Z,100412.03
2019-03-20T10:59:33.203Z,100414.98
2019-03-20T11:02:02.696Z,100416.13
2019-03-20T11:04:32.078Z,100409.84
2019-03-20T11:07:01.454Z,100404.92
2019-03-20T11:09:30.932Z,100412.14
2019-03-20T11:12:00.312Z,100405.85
2019-03-20T11:14:29.672Z,100409.37
2019-03-20T11:16:59.126Z,100399.39
2019-03-20T11:19:28.552Z,100400.66
2019-03-20T11:21:57.889Z,100398.20
2019-03-20T11:24:27.326Z,100403.37
2019-03-20T11:26:56.719Z,100390.14
2019-03-20T11:29:26.080Z,100394.65
2019-03-20T11:31:55.519Z,100393.22
2019-03-20T11:34:24.868Z,100386.90
2019-03-20T11:36:54.690Z,100391.16
2019-03-20T11:39:29.893Z,100390.53
2019-03-20T11:42:16.879Z,100389.89
2019-03-20T11:44:46.325Z,100395.09
2019-03-20T11:47:15.701Z,100389.70
2019-03-20T11:52:47.761Z,100381.20
2019-03-20T11:55:17.221Z,100375.41
2019-03-20T11:57:46.621Z,100374.31
2019-03-20T12:00:16.637Z,100371.70
2019-03-20T12:02:46.103Z,100367.93
2019-03-20T12:05:15.493Z,100365.13
2019-03-20T12:07:44.999Z,100367.77
2019-03-20T12:10:16.728Z,100371.88
2019-03-20T12:12:45.282Z,100365.63
2019-03-20T12:15:14.921Z,100370.24
2019-03-20T12:17:44.347Z,100364.38
2019-03-20T12:20:15.443Z,100369.62
2019-03-20T12:22:44.351Z,100361.38
2019-03-20T12:25:16.380Z,100360.45
2019-03-20T12:27:45.140Z,100352.06
2019-03-20T12:33:18.151Z,100357.07
2019-03-20T12:35:47.547Z,100363.38
2019-03-20T12:38:16.928Z,100355.52
2019-03-20T12:40:46.412Z,100359.88
2019-03-20T12:43:15.802Z,100360.11
2019-03-20T12:45:45.344Z,100357.80
2019-03-20T12:48:14.738Z,100358.38
2019-03-20T12:50:44.081Z,100355.61
2019-03-20T12:53:13.900Z,100356.80
2019-03-20T12:55:43.228Z,100355.70
2019-03-20T12:58:12.588Z,100350.34
2019-03-20T13:00:41.956Z,100349.77
2019-03-20T13:05:40.670Z,100351.09
2019-03-20T13:08:10.111Z,100353.81
2019-03-20T13:10:39.606Z,100359.83
2019-03-20T13:13:09.065Z,100366.49
2019-03-20T13:15:38.457Z,100358.83
2019-03-20T13:18:07.809Z,100360.86
2019-03-20T13:20:37.325Z,100361.29
2019-03-20T13:23:08.564Z,100351.42
2019-03-20T13:28:40.148Z,100361.02
2019-03-20T13:31:13.121Z,100361.92
2019-03-20T13:36:45.145Z,100355.42
2019-03-20T13:39:33.933Z,100355.45
2019-03-20T13:42:03.415Z,100357.44
2019-03-20T13:44:32.743Z,100360.03
2019-03-20T13:47:02.103Z,100360.89
2019-03-20T13:49:31.487Z,100357.23
2019-03-20T13:52:00.867Z,100363.82
2019-03-20T13:54:30.211Z,100365.48
2019-03-20T13:56:59.664Z,100371.89
2019-03-20T13:59:30.036Z,100376.73
2019-03-20T14:01:59.452Z,100375.02
2019-03-20T14:04:28.879Z,100377.91
2019-03-20T14:06:58.266Z,100379.20
2019-03-20T14:09:27.673Z,100379.42
2019-03-20T14:11:57.079Z,100382.09
2019-03-20T14:14:26.437Z,100384.62
2019-03-20T14:16:55.835Z,100381.88
2019-03-20T14:19:25.191Z,100398.19
2019-03-20T14:21:54.565Z,100393.46
2019-03-20T14:24:24.411Z,100399.97
2019-03-20T14:26:53.761Z,100404.02
2019-03-20T14:29:23.180Z,100399.03
2019-03-20T14:31:52.523Z,100400.97
2019-03-20T14:34:21.929Z,100415.06
2019-03-20T14:36:51.288Z,100412.34
2019-03-20T14:39:20.656Z,100413.13
2019-03-20T14:41:50.020Z,100415.69
2019-03-20T14:44:19.376Z,100416.52
2019-03-20T14:46:48.727Z,100418.73
2019-03-20T14:49:18.133Z,100422.22
2019-03-20T14:51:47.503Z,100434.23
2019-03-20T14:54:16.936Z,100434.97
2019-03-20T14:56:47.489Z,100448.73
2019-03-20T14:59:16.878Z,100454.23
2019-03-20T15:01:46.266Z,100452.33
2019-03-20T15:04:15.622Z,100454.99
2019-03-20T15:06:44.961Z,100455.85
2019-03-20T15:09:15.840Z,100462.38
2019-03-20T15:11:44.487Z,100479.47
2019-03-20T15:14:13.851Z,100481.83
2019-03-20T15:16:43.200Z,100479.35
2019-03-20T15:19:12.580Z,100485.52
2019-03-20T15:21:41.935Z,100487.55
2019-03-20T15:24:11.306Z,100492.09
2019-03-20T15:26:40.677Z,100490.15
2019-03-20T15:29:10.028Z,100491.98
2019-03-20T15:31:39.401Z,100505.05
2019-03-20T15:34:08.768Z,100510.58
2019-03-20T15:36:38.205Z,100517.67
2019-03-20T15:39:07.778Z,100520.12
2019-03-20T15:41:37.184Z,100517.56
2019-03-20T15:44:06.543Z,100529.44
2019-03-20T15:46:35.936Z,100530.47
2019-03-20T15:49:05.291Z,100537.58
2019-03-20T15:51:34.711Z,100542.50
2019-03-20T15:54:15.596Z,100541.30
2019-03-20T15:56:44.356Z,100549.46
2019-03-20T15:59:13.708Z,100545.88
2019-03-20T16:01:43.077Z,100553.42
2019-03-20T16:04:12.524Z,100556.19
2019-03-20T16:06:41.879Z,100556.51
2019-03-20T16:09:11.243Z,100555.75
2019-03-20T16:11:40.611Z,100560.70
2019-03-20T16:14:09.963Z,100562.11
2019-03-20T16:16:39.316Z,100576.31
2019-03-20T16:19:08.676Z,100574.53
2019-03-20T16:21:38.116Z,100580.28
2019-03-20T16:24:07.506Z,100585.20
2019-03-20T16:26:37.291Z,100589.79
2019-03-20T16:29:06.649Z,100597.66
2019-03-20T16:31:36.051Z,100602.72
2019-03-20T16:34:05.395Z,100610.13
2019-03-20T16:36:34.769Z,100615.80
2019-03-20T16:42:08.187Z,100621.78
2019-03-20T16:44:37.536Z,100637.06
2019-03-20T16:47:06.949Z,100637.30
2019-03-20T16:49:36.310Z,100647.66
2019-03-20T16:52:05.663Z,100651.70
2019-03-20T16:54:35.009Z,100655.67
2019-03-20T16:57:04.363Z,100661.50
2019-03-20T16:59:33.726Z,100659.38
2019-03-20T17:02:03.114Z,100659.98
2019-03-20T17:04:32.465Z,100664.02
2019-03-20T17:07:01.833Z,100670.87
2019-03-20T17:09:31.231Z,100680.56
2019-03-20T17:12:00.632Z,100673.57
2019-03-20T17:14:30.025Z,100681.79
2019-03-20T17:16:59.396Z,100683.65
2019-03-20T17:19:28.756Z,100687.98
2019-03-20T17:21:58.124Z,100689.31
2019-03-20T17:24:27.567Z,100694.33
2019-03-20T17:26:56.923Z,100695.73
2019-03-20T17:29:26.331Z,100691.67
2019-03-20T17:31:55.683Z,100693.28
2019-03-20T17:34:25.090Z,100703.53
2019-03-20T17:36:54.465Z,100713.99
2019-03-20T17:39:23.907Z,100715.56
2019-03-20T17:41:53.270Z,100723.07
2019-03-20T17:44:22.689Z,100731.71
2019-03-20T17:46:52.055Z,100733.26
2019-03-20T17:49:21.498Z,100743.50
2019-03-20T17:51:50.911Z,100735.53
2019-03-20T17:54:20.327Z,100742.23
2019-03-20T17:56:49.751Z,100748.33
2019-03-20T17:59:19.205Z,100757.17
2019-03-20T18:01:48.557Z,100764.23
2019-03-20T18:04:17.918Z,100773.16
2019-03-20T18:06:47.300Z,100768.07
2019-03-20T18:09:16.674Z,100780.57
2019-03-20T18:11:47.674Z,100775.73
2019-03-20T18:14:35.379Z,100780.69
2019-03-20T18:17:04.870Z,100780.91
2019-03-20T18:19:34.282Z,100786.19
2019-03-20T18:22:03.642Z,100788.34
2019-03-20T18:24:32.967Z,100787.27
2019-03-20T18:27:02.326Z,100792.47
2019-03-20T18:29:31.680Z,100799.25
2019-03-20T18:32:01.045Z,100804.87
2019-03-20T18:34:30.410Z,100806.19
2019-03-20T18:36:59.773Z,100808.77
2019-03-20T18:39:29.152Z,100812.38
2019-03-20T18:41:58.534Z,100809.48
2019-03-20T18:44:27.866Z,100813.37
2019-03-20T18:46:57.249Z,100816.30
2019-03-20T18:49:26.596Z,100810.85
2019-03-20T18:51:55.927Z,100808.69
2019-03-20T18:54:25.276Z,100813.52
2019-03-20T18:56:54.626Z,100812.09
2019-03-20T18:59:24.122Z,100819.38
2019-03-20T19:01:53.476Z,100815.69
2019-03-20T19:04:22.819Z,100807.98
2019-03-20T19:06:52.152Z,100813.08
2019-03-20T19:09:21.630Z,100824.14
2019-03-20T19:11:51.078Z,100821.08
2019-03-20T19:14:20.423Z,100827.09
2019-03-20T19:16:49.829Z,100824.39
2019-03-20T19:19:19.295Z,100833.48
2019-03-20T19:21:48.663Z,100833.92
2019-03-20T19:24:18.024Z,100847.86
2019-03-20T19:26:47.379Z,100847.67
2019-03-20T19:29:16.734Z,100855.54
2019-03-20T19:31:46.111Z,100859.66
2019-03-20T19:34:15.458Z,100857.81
2019-03-20T19:36:44.796Z,100863.92
2019-03-20T19:39:14.153Z,100862.19
2019-03-20T19:41:43.509Z,100859.82
2019-03-20T19:44:12.849Z,100859.59
2019-03-20T19:46:42.212Z,100860.64
2019-03-20T19:49:11.561Z,100862.77
2019-03-20T19:51:40.898Z,100874.83
2019-03-20T19:54:10.278Z,100872.80
2019-03-20T19:56:39.677Z,100870.73
2019-03-20T19:59:09.108Z,100878.73
2019-03-20T20:01:38.439Z,100887.87
2019-03-20T20:04:07.765Z,100885.01
2019-03-20T20:06:37.110Z,100889.53
2019-03-20T20:09:07.175Z,100892.34
2019-03-20T20:11:36.615Z,100893.28
2019-03-20T20:14:05.954Z,100896.68
2019-03-20T20:16:35.299Z,100898.95
2019-03-20T20:19:04.658Z,100897.66
2019-03-20T20:21:34.007Z,100897.61
2019-03-20T20:24:03.364Z,100898.66
2019-03-20T20:26:32.781Z,100900.56
2019-03-20T20:29:02.128Z,100898.55
2019-03-20T20:31:31.470Z,100905.23
2019-03-20T20:34:00.835Z,100903.80
2019-03-20T20:36:30.162Z,100907.67
2019-03-20T20:38:59.509Z,100915.67
2019-03-20T20:41:28.887Z,100916.78
2019-03-20T20:43:58.272Z,100922.03
2019-03-20T20:46:27.730Z,100926.52
2019-03-20T20:48:57.087Z,100921.18
2019-03-20T20:51:26.423Z,100925.45
2019-03-20T20:53:55.796Z,100937.38
2019-03-20T20:56:25.222Z,100933.81
2019-03-20T20:58:54.586Z,100941.29
2019-03-20T21:01:23.933Z,100945.96
2019-03-20T21:03:53.272Z,100940.59
2019-03-20T21:06:22.600Z,100942.89
2019-03-20T21:08:51.948Z,100947.70
2019-03-20T21:11:21.288Z,100952.48
2019-03-20T21:13:50.628Z,100950.65
2019-03-20T21:16:20.522Z,100951.59
2019-03-20T21:19:28.639Z,100947.46
2019-03-20T21:22:36.720Z,100955.80
2019-03-20T21:25:06.023Z,100956.00
2019-03-20T21:28:14.147Z,100957.56
2019-03-20T21:31:22.201Z,100959.84
2019-03-20T21:34:29.618Z,100962.16
2019-03-20T21:37:37.707Z,100974.54
2019-03-20T21:40:08.015Z,100968.40
2019-03-20T21:43:15.270Z,100977.81
2019-03-20T21:46:22.623Z,100972.25
2019-03-20T21:48:51.678Z,100976.11
2019-03-20T21:51:21.925Z,100970.13
2019-03-20T21:54:29.973Z,100969.11
2019-03-20T21:57:29.872Z,100977.88
2019-03-20T22:00:37.973Z,100981.64
2019-03-20T22:03:07.850Z,100977.02
2019-03-20T22:06:15.969Z,100977.89
2019-03-20T22:08:46.196Z,100986.23
2019-03-20T22:11:54.317Z,100982.06
2019-03-20T22:14:24.205Z,100996.11
2019-03-20T22:17:26.483Z,100994.45
2019-03-20T22:20:34.526Z,100990.53
2019-03-20T22:23:41.879Z,100998.00
2019-03-20T22:26:49.233Z,100993.58
2019-03-20T22:29:37.483Z,100994.73
2019-03-20T22:32:31.940Z,100995.95
2019-03-20T22:35:39.390Z,100998.83
2019-03-20T22:38:14.236Z,100990.67
2019-03-20T22:41:21.674Z,100999.50
2019-03-20T22:43:55.665Z,100997.54
2019-03-20T22:47:03.781Z,100990.80
2019-03-20T22:50:11.855Z,100998.70
2019-03-20T22:53:04.129Z,100996.70
2019-03-20T22:56:11.381Z,100999.34
2019-03-20T22:58:59.548Z,101005.28
2019-03-20T23:02:07.666Z,101002.48
2019-03-20T23:04:40.811Z,101008.48
2019-03-20T23:07:10.723Z,101007.25
2019-03-20T23:09:59.744Z,101007.74
2019-03-20T23:12:29.622Z,101011.13
2019-03-20T23:14:59.505Z,101007.48
2019-03-20T23:17:29.366Z,101010.77
2019-03-20T23:23:02.323Z,101008.22
2019-03-20T23:25:32.192Z,101010.72
2019-03-20T23:28:02.065Z,101017.94
2019-03-20T23:30:31.985Z,101013.69
2019-03-20T23:33:01.852Z,101008.55
2019-03-20T23:35:31.726Z,101008.67
2019-03-20T23:38:01.632Z,101011.25
2019-03-20T23:40:31.504Z,101017.05
2019-03-20T23:43:01.740Z,101015.06
2019-03-20T23:45:31.617Z,101017.48
2019-03-20T23:48:25.317Z,101010.80
2019-03-20T23:50:58.924Z,101013.61
2019-03-20T23:53:28.188Z,101024.16
2019-03-20T23:55:58.052Z,101020.41
2019-03-20T23:58:27.916Z,101014.75
